createdAt,value
2023-02-11T00:01:21.932Z,35.03
2023-02-11T00:11:30.215Z,41.17
2023-02-11T00:21:35.160Z,34.55
2023-02-11T00:31:38.476Z,30.48
2023-02-11T00:41:42.997Z,34.88
2023-02-11T00:51:45.954Z,33.03
2023-02-11T01:01:50.351Z,29.63
2023-02-11T01:11:53.524Z,23.93
2023-02-11T01:21:57.864Z,33.05
2023-02-11T01:32:01.618Z,29.53
2023-02-11T01:42:06.726Z,25.55
2023-02-11T02:02:21.484Z,25.63
2023-02-11T02:12:24.502Z,25.95
2023-02-11T02:23:01.584Z,29.55
2023-02-11T02:33:25.557Z,32.15
2023-02-11T02:43:30.306Z,30.35
2023-02-11T02:53:51.084Z,27.88
2023-02-11T03:04:05.155Z,30.42
2023-02-11T03:14:12.462Z,30.65
2023-02-11T03:24:21.561Z,26.85
2023-02-11T03:34:32.037Z,23.77
2023-02-11T03:44:40.139Z,38.05
2023-02-11T03:54:47.137Z,26.92
2023-02-11T04:04:50.196Z,23.77
2023-02-11T04:14:54.532Z,26.90
2023-02-11T04:24:57.532Z,28.50
2023-02-11T04:35:02.865Z,24.65
2023-02-11T04:45:07.252Z,29.83
2023-02-11T04:55:11.622Z,25.40
2023-02-11T05:05:14.641Z,25.10
2023-02-11T05:15:19.145Z,30.42
2023-02-11T05:25:22.178Z,31.93
2023-02-11T05:35:26.553Z,37.53
2023-02-11T05:45:29.622Z,39.43
2023-02-11T05:55:37.291Z,37.25
2023-02-11T06:05:40.293Z,36.88
2023-02-11T06:15:44.807Z,37.72
2023-02-11T06:25:47.974Z,43.50
2023-02-11T06:35:52.601Z,50.85
2023-02-11T06:45:56.488Z,49.28
2023-02-11T06:56:05.448Z,56.75
2023-02-11T07:06:09.425Z,59.25
2023-02-11T07:16:15.335Z,59.92
2023-02-11T07:26:20.121Z,60.63
2023-02-11T07:36:25.622Z,66.47
2023-02-11T07:46:28.994Z,72.40
2023-02-11T07:56:34.676Z,80.57
2023-02-11T08:06:42.998Z,77.78
2023-02-11T08:16:47.780Z,75.57
2023-02-11T08:26:50.989Z,74.53
2023-02-11T08:36:58.349Z,77.72
2023-02-11T08:47:01.452Z,87.07
2023-02-11T08:57:06.241Z,92.53
2023-02-11T09:07:09.417Z,93.30
2023-02-11T09:17:14.089Z,86.80
2023-02-11T09:27:17.241Z,84.23
2023-02-11T09:37:21.710Z,82.03
2023-02-11T09:47:29.309Z,65.97
2023-02-11T09:57:36.382Z,81.35
2023-02-11T10:07:47.886Z,82.82
2023-02-11T10:18:07.643Z,85.05
2023-02-11T10:28:16.488Z,79.03
2023-02-11T10:38:21.101Z,78.80
2023-02-11T10:48:43.861Z,91.13
2023-02-11T10:58:57.187Z,89.00
2023-02-11T11:09:01.263Z,81.28
2023-02-11T11:19:23.159Z,82.63
2023-02-11T11:29:34.162Z,88.80
2023-02-11T11:39:40.952Z,85.55
2023-02-11T11:49:50.200Z,77.15
2023-02-11T11:59:54.714Z,75.38
2023-02-11T12:10:19.872Z,76.57
2023-02-11T12:20:36.808Z,70.90
2023-02-11T12:30:51.367Z,78.20
2023-02-11T12:41:10.570Z,74.53
2023-02-11T12:51:23.776Z,66.80
2023-02-11T13:01:33.363Z,68.63
2023-02-11T13:11:41.404Z,64.90
2023-02-11T13:22:02.027Z,71.63
2023-02-11T13:32:10.307Z,60.13
2023-02-11T13:42:18.120Z,64.53
2023-02-11T13:52:27.092Z,56.67
2023-02-11T14:02:53.741Z,52.75
2023-02-11T14:13:24.307Z,73.18
2023-02-11T14:23:28.688Z,50.50
2023-02-11T14:33:53.692Z,43.53
2023-02-11T14:44:01.478Z,51.22
2023-02-11T14:54:15.567Z,45.38
2023-02-11T15:04:28.109Z,47.53
2023-02-11T15:14:33.288Z,50.03
2023-02-11T15:24:39.365Z,41.58
2023-02-11T15:34:42.928Z,51.08
2023-02-11T15:44:52.286Z,43.95
2023-02-11T15:55:02.397Z,46.90
2023-02-11T16:05:09.916Z,49.67
2023-02-11T16:15:44.481Z,48.25
2023-02-11T16:25:49.297Z,53.10
2023-02-11T16:35:52.735Z,49.28
2023-02-11T16:45:59.767Z,51.60
2023-02-11T16:56:03.011Z,50.92
2023-02-11T17:06:12.314Z,53.47
2023-02-11T17:16:19.031Z,59.78
2023-02-11T17:26:23.738Z,49.55
2023-02-11T17:36:27.021Z,54.15
2023-02-11T17:46:32.407Z,48.85
2023-02-11T17:56:37.293Z,50.55
2023-02-11T18:06:41.842Z,51.90
2023-02-11T18:16:46.092Z,53.97
2023-02-11T18:26:50.760Z,33.30
2023-02-11T18:36:54.463Z,47.35
2023-02-11T18:46:58.836Z,41.13
2023-02-11T18:57:01.946Z,41.03
2023-02-11T19:07:06.344Z,45.88
2023-02-11T19:17:11.887Z,45.33
2023-02-11T19:27:16.951Z,38.30
2023-02-11T19:47:27.781Z,41.03
2023-02-11T19:57:31.248Z,42.72
2023-02-11T20:07:35.871Z,37.83
2023-02-11T20:17:38.980Z,42.78
2023-02-11T20:27:43.380Z,44.85
2023-02-11T20:37:46.612Z,36.17
2023-02-11T20:47:51.268Z,41.55
2023-02-11T20:57:54.554Z,37.20
2023-02-11T21:07:59.147Z,36.25
2023-02-11T21:18:02.177Z,31.97
2023-02-11T21:28:07.082Z,35.90
2023-02-11T21:38:10.082Z,31.88
2023-02-11T21:48:15.214Z,30.90
2023-02-11T21:58:18.530Z,35.13
2023-02-11T22:08:23.099Z,30.35
2023-02-11T22:18:26.404Z,23.70
2023-02-11T22:28:31.188Z,22.85
2023-02-11T22:38:35.335Z,22.92
2023-02-11T22:48:39.964Z,25.37
2023-02-11T22:58:43.151Z,19.67
2023-02-11T23:08:47.814Z,26.08
2023-02-11T23:18:51.552Z,25.47
2023-02-11T23:28:56.774Z,26.08
2023-02-11T23:39:00.292Z,24.02
2023-02-11T23:49:04.683Z,24.63
2023-02-11T23:59:07.687Z,24.17
